createdAt,value
2018-10-18T00:00:28.055Z,29.60
2018-10-18T00:05:33.768Z,32.17
2018-10-18T00:08:03.823Z,26.87
2018-10-18T00:10:32.849Z,26.10
2018-10-18T00:13:01.909Z,27.10
2018-10-18T00:15:30.948Z,25.30
2018-10-18T00:20:35.677Z,29.12
2018-10-18T00:23:04.740Z,25.50
2018-10-18T00:25:33.801Z,25.10
2018-10-18T00:28:02.869Z,23.87
2018-10-18T00:30:31.945Z,29.48
2018-10-18T00:33:01.004Z,26.27
2018-10-18T00:35:31.074Z,23.50
2018-10-18T00:38:00.134Z,28.87
2018-10-18T00:40:29.156Z,24.70
2018-10-18T00:42:59.159Z,22.80
2018-10-18T00:45:29.120Z,23.37
2018-10-18T00:47:58.208Z,28.15
2018-10-18T00:53:03.970Z,27.90
2018-10-18T00:55:33.015Z,24.97
2018-10-18T01:00:38.738Z,28.87
2018-10-18T01:03:07.810Z,26.03
2018-10-18T01:05:36.867Z,22.50
2018-10-18T01:08:05.921Z,24.07
2018-10-18T01:10:34.940Z,27.63
2018-10-18T01:13:03.993Z,34.15
2018-10-18T01:18:08.831Z,33.72
2018-10-18T01:20:37.825Z,28.50
2018-10-18T01:23:06.865Z,26.87
2018-10-18T01:25:35.912Z,27.30
2018-10-18T01:28:05.916Z,25.47
2018-10-18T01:30:34.979Z,26.27
2018-10-18T01:33:04.073Z,26.60
2018-10-18T01:38:08.953Z,35.70
2018-10-18T01:40:37.959Z,34.80
2018-10-18T01:43:06.991Z,28.10
2018-10-18T01:48:11.965Z,34.15
2018-10-18T01:50:40.933Z,27.90
2018-10-18T01:53:09.991Z,26.40
2018-10-18T01:55:39.055Z,27.20
2018-10-18T01:58:08.101Z,25.77
2018-10-18T02:00:37.183Z,35.13
2018-10-18T02:05:43.980Z,35.53
2018-10-18T02:08:13.226Z,27.80
2018-10-18T02:14:10.090Z,35.30
2018-10-18T02:16:39.129Z,28.73
2018-10-18T02:19:10.224Z,27.47
2018-10-18T02:21:39.208Z,28.27
2018-10-18T02:24:08.274Z,27.33
2018-10-18T02:26:37.308Z,29.30
2018-10-18T02:29:06.357Z,29.93
2018-10-18T02:31:35.404Z,29.30
2018-10-18T02:34:04.454Z,29.53
2018-10-18T02:36:33.509Z,29.43
2018-10-18T02:39:02.556Z,29.60
2018-10-18T02:44:08.334Z,35.22
2018-10-18T02:46:38.351Z,31.13
2018-10-18T02:49:07.412Z,29.13
2018-10-18T02:54:12.156Z,36.53
2018-10-18T02:56:41.206Z,32.27
2018-10-18T02:59:10.260Z,29.07
2018-10-18T03:01:39.304Z,29.33
2018-10-18T03:04:08.344Z,36.10
2018-10-18T03:09:13.233Z,36.75
2018-10-18T03:11:43.256Z,31.43
2018-10-18T03:16:48.978Z,42.85
2018-10-18T03:19:18.962Z,42.78
2018-10-18T03:21:50.155Z,35.97
2018-10-18T03:24:20.122Z,31.57
2018-10-18T03:29:24.926Z,38.55
2018-10-18T03:34:29.681Z,37.03
2018-10-18T03:39:34.429Z,28.98
2018-10-18T03:44:40.145Z,26.62
2018-10-18T03:47:09.196Z,23.77
2018-10-18T03:49:38.246Z,21.80
2018-10-18T03:52:07.288Z,22.40
2018-10-18T03:54:38.276Z,24.23
2018-10-18T03:59:43.208Z,34.00
2018-10-18T04:02:12.117Z,35.67
2018-10-18T04:04:41.204Z,32.90
2018-10-18T04:07:10.251Z,32.10
2018-10-18T04:09:40.246Z,31.60
2018-10-18T04:14:45.041Z,40.08
2018-10-18T04:17:17.988Z,42.17
2018-10-18T04:19:47.029Z,34.80
2018-10-18T04:22:16.077Z,34.27
2018-10-18T04:27:20.884Z,52.60
2018-10-18T04:29:49.921Z,40.97
2018-10-18T04:32:19.022Z,40.20
2018-10-18T04:37:23.973Z,48.40
2018-10-18T04:42:28.687Z,43.53
2018-10-18T04:47:33.482Z,41.70
2018-10-18T04:50:02.484Z,42.38
2018-10-18T04:55:07.367Z,43.50
2018-10-18T04:57:36.329Z,37.40
2018-10-18T05:02:41.679Z,42.47
2018-10-18T05:08:16.854Z,42.92
2018-10-18T05:10:46.860Z,46.20
2018-10-18T05:13:17.038Z,35.87
2018-10-18T05:15:46.029Z,35.10
2018-10-18T05:20:50.767Z,39.60
2018-10-18T05:23:19.830Z,42.62
2018-10-18T05:25:48.872Z,34.40
2018-10-18T05:30:53.679Z,37.97
2018-10-18T05:35:58.395Z,35.47
2018-10-18T05:38:29.476Z,27.63
2018-10-18T05:40:59.481Z,33.65
2018-10-18T05:43:28.533Z,28.20
2018-10-18T05:45:57.585Z,26.03
2018-10-18T05:48:27.630Z,25.30
2018-10-18T05:51:00.510Z,24.87
2018-10-18T05:56:06.309Z,32.60
2018-10-18T05:58:35.365Z,26.03
2018-10-18T06:01:06.425Z,27.43
2018-10-18T06:06:13.119Z,31.35
2018-10-18T06:08:42.188Z,32.10
2018-10-18T06:11:22.637Z,28.20
2018-10-18T06:13:51.684Z,25.33
2018-10-18T06:16:20.724Z,24.97
2018-10-18T06:18:49.773Z,24.97
2018-10-18T06:21:18.816Z,30.10
2018-10-18T06:23:47.862Z,23.67
2018-10-18T06:26:16.905Z,24.27
2018-10-18T06:31:21.654Z,30.33
2018-10-18T06:36:26.382Z,29.73
2018-10-18T06:39:04.273Z,24.90
2018-10-18T06:44:09.033Z,28.40
2018-10-18T06:46:38.405Z,25.33
2018-10-18T06:49:07.545Z,26.30
2018-10-18T06:51:36.501Z,27.40
2018-10-18T06:54:05.603Z,24.20
2018-10-18T06:59:10.621Z,28.55
2018-10-18T07:01:41.644Z,25.77
2018-10-18T07:06:46.382Z,28.45
2018-10-18T07:09:15.741Z,27.07
2018-10-18T07:11:49.178Z,25.30
2018-10-18T07:14:19.165Z,24.30
2018-10-18T07:16:50.607Z,24.47
2018-10-18T07:19:20.429Z,24.33
2018-10-18T07:21:54.438Z,22.60
2018-10-18T07:27:03.116Z,27.30
2018-10-18T07:29:32.382Z,25.30
2018-10-18T07:34:37.193Z,27.77
2018-10-18T07:39:41.952Z,29.10
2018-10-18T07:42:11.026Z,26.53
2018-10-18T07:44:41.010Z,25.73
2018-10-18T07:47:10.076Z,26.43
2018-10-18T07:49:39.124Z,24.90
2018-10-18T07:52:08.192Z,23.33
2018-10-18T07:57:13.015Z,29.20
2018-10-18T07:59:42.065Z,29.42
2018-10-18T08:02:11.268Z,29.83
2018-10-18T08:04:40.353Z,30.62
2018-10-18T08:07:09.487Z,27.87
2018-10-18T08:09:38.791Z,27.90
2018-10-18T08:12:07.846Z,26.30
2018-10-18T08:14:36.889Z,24.37
2018-10-18T08:17:09.153Z,27.00
2018-10-18T08:19:38.211Z,25.20
2018-10-18T08:22:09.193Z,26.63
2018-10-18T08:24:38.248Z,25.23
2018-10-18T08:27:07.310Z,23.47
2018-10-18T08:29:37.067Z,29.03
2018-10-18T08:32:09.939Z,28.97
2018-10-18T08:34:38.978Z,24.80
2018-10-18T08:37:08.181Z,28.57
2018-10-18T08:39:37.189Z,31.17
2018-10-18T08:42:06.256Z,34.20
2018-10-18T08:44:35.508Z,35.03
2018-10-18T08:47:04.386Z,31.97
2018-10-18T08:49:33.440Z,33.47
2018-10-18T08:52:03.497Z,30.90
2018-10-18T08:57:08.302Z,31.12
2018-10-18T08:59:37.513Z,29.77
2018-10-18T09:02:06.588Z,29.90
2018-10-18T09:04:35.625Z,34.57
2018-10-18T09:07:04.804Z,33.10
2018-10-18T09:09:33.821Z,35.40
2018-10-18T09:14:38.645Z,39.42
2018-10-18T09:17:07.701Z,40.77
2018-10-18T09:19:36.765Z,44.25
2018-10-18T09:24:41.622Z,48.50
2018-10-18T09:27:10.679Z,48.03
2018-10-18T09:29:40.699Z,47.40
2018-10-18T09:32:09.749Z,47.20
2018-10-18T09:34:38.800Z,47.90
2018-10-18T09:37:08.033Z,46.00
2018-10-18T09:39:37.072Z,45.63
2018-10-18T09:44:42.003Z,43.17
2018-10-18T09:54:59.864Z,43.60
2018-10-18T09:57:28.878Z,45.00
2018-10-18T09:59:58.842Z,42.80
2018-10-18T10:02:29.009Z,42.77
2018-10-18T10:07:33.949Z,44.97
2018-10-18T10:10:07.134Z,43.47
2018-10-18T10:12:36.162Z,45.95
2018-10-18T10:15:05.235Z,44.77
2018-10-18T10:17:34.370Z,44.00
2018-10-18T10:20:03.345Z,44.38
2018-10-18T10:22:34.323Z,45.50
2018-10-18T10:27:39.242Z,42.75
2018-10-18T10:30:08.360Z,41.27
2018-10-18T10:32:38.302Z,44.30
2018-10-18T10:35:07.386Z,44.53
2018-10-18T10:37:40.379Z,43.50
2018-10-18T10:42:45.387Z,41.95
2018-10-18T10:45:14.539Z,43.93
2018-10-18T10:47:44.476Z,43.43
2018-10-18T10:50:13.564Z,43.87
2018-10-18T10:52:42.602Z,46.47
2018-10-18T10:55:11.665Z,42.62
2018-10-18T10:57:40.722Z,44.63
2018-10-18T11:00:09.835Z,44.47
2018-10-18T11:02:39.046Z,41.40
2018-10-18T11:05:11.437Z,40.90
2018-10-18T11:07:41.491Z,41.53
2018-10-18T11:10:11.485Z,41.53
2018-10-18T11:12:40.551Z,41.13
2018-10-18T11:15:09.753Z,40.83
2018-10-18T11:17:38.782Z,39.33
2018-10-18T11:20:07.881Z,40.60
2018-10-18T11:22:36.944Z,43.63
2018-10-18T11:25:06.009Z,41.60
2018-10-18T11:27:35.079Z,37.70
2018-10-18T11:30:04.201Z,36.57
2018-10-18T11:32:33.213Z,38.40
2018-10-18T11:35:03.194Z,37.95
2018-10-18T11:37:34.241Z,38.70
2018-10-18T11:40:03.291Z,40.10
2018-10-18T11:42:32.459Z,36.47
2018-10-18T11:45:02.462Z,34.50
2018-10-18T11:47:31.525Z,35.03
2018-10-18T11:50:00.635Z,35.53
2018-10-18T11:52:29.634Z,35.08
2018-10-18T11:57:34.574Z,35.28
2018-10-18T12:00:03.768Z,32.70
2018-10-18T12:02:32.817Z,38.78
2018-10-18T12:05:01.932Z,33.80
2018-10-18T12:07:33.978Z,35.13
2018-10-18T12:10:07.084Z,34.87
2018-10-18T12:12:37.045Z,32.63
2018-10-18T12:15:07.115Z,32.80
2018-10-18T12:17:36.255Z,34.17
2018-10-18T12:22:41.124Z,30.98
2018-10-18T12:25:11.199Z,29.93
2018-10-18T12:27:40.260Z,31.63
2018-10-18T12:30:09.328Z,32.47
2018-10-18T12:32:38.377Z,34.40
2018-10-18T12:35:07.558Z,32.57
2018-10-18T12:37:36.498Z,30.90
2018-10-18T12:40:05.598Z,27.60
2018-10-18T12:42:34.629Z,27.90
2018-10-18T12:45:03.861Z,27.47
2018-10-18T12:47:32.909Z,30.67
2018-10-18T12:50:02.062Z,25.13
2018-10-18T12:52:31.995Z,24.87
2018-10-18T12:55:01.053Z,26.47
2018-10-18T12:57:30.117Z,24.63
2018-10-18T12:59:59.221Z,25.33
2018-10-18T13:02:28.300Z,23.40
2018-10-18T13:10:08.847Z,28.77
2018-10-18T13:12:39.244Z,28.03
2018-10-18T13:15:08.106Z,28.40
2018-10-18T13:17:37.161Z,23.40
2018-10-18T13:20:08.193Z,26.23
2018-10-18T13:22:37.223Z,26.50
2018-10-18T13:27:42.226Z,22.95
2018-10-18T13:30:11.513Z,24.10
2018-10-18T13:32:40.442Z,22.83
2018-10-18T13:35:11.465Z,22.45
2018-10-18T13:37:40.541Z,23.87
2018-10-18T13:40:09.593Z,23.20
2018-10-18T13:45:14.370Z,22.33
2018-10-18T13:50:19.244Z,22.75
2018-10-18T13:52:49.333Z,24.93
2018-10-18T13:55:22.443Z,24.70
2018-10-18T13:57:51.496Z,23.90
2018-10-18T14:00:20.692Z,25.55
2018-10-18T14:02:49.668Z,23.00
2018-10-18T14:07:58.267Z,24.02
2018-10-18T14:10:28.281Z,24.77
2018-10-18T14:12:58.357Z,23.93
2018-10-18T14:18:03.264Z,25.60
2018-10-18T14:20:32.327Z,24.30
2018-10-18T14:23:01.437Z,24.02
2018-10-18T14:25:30.463Z,26.47
2018-10-18T14:27:59.532Z,22.93
2018-10-18T14:30:28.684Z,24.17
2018-10-18T14:32:59.629Z,25.57
2018-10-18T14:35:28.698Z,23.80
2018-10-18T14:37:59.687Z,26.03
2018-10-18T14:40:28.786Z,27.60
2018-10-18T14:42:58.801Z,24.80
2018-10-18T14:45:27.859Z,25.57
2018-10-18T14:47:58.888Z,23.70
2018-10-18T14:50:30.119Z,26.15
2018-10-18T14:52:59.121Z,27.03
2018-10-18T14:55:30.129Z,26.47
2018-10-18T14:57:59.188Z,26.73
2018-10-18T15:00:29.264Z,29.50
2018-10-18T15:02:58.335Z,27.60
2018-10-18T15:08:05.243Z,25.90
2018-10-18T15:10:34.266Z,25.47
2018-10-18T15:13:03.323Z,26.87
2018-10-18T15:15:32.519Z,26.07
2018-10-18T15:18:05.751Z,27.73
2018-10-18T15:20:34.995Z,28.50
2018-10-18T15:28:15.608Z,29.10
2018-10-18T15:30:44.669Z,30.88
2018-10-18T15:33:13.781Z,29.80
2018-10-18T15:35:42.794Z,30.87
2018-10-18T15:38:13.905Z,29.23
2018-10-18T15:40:42.875Z,30.67
2018-10-18T15:43:11.928Z,29.70
2018-10-18T15:48:16.802Z,33.55
2018-10-18T15:50:47.793Z,33.30
2018-10-18T15:53:16.885Z,31.80
2018-10-18T15:55:45.913Z,29.97
2018-10-18T15:58:16.962Z,33.38
2018-10-18T16:00:46.037Z,33.73
2018-10-18T16:05:51.801Z,38.72
2018-10-18T16:11:02.617Z,35.38
2018-10-18T16:16:07.386Z,35.92
2018-10-18T16:18:36.444Z,32.30
2018-10-18T16:21:06.549Z,35.95
2018-10-18T16:23:35.620Z,37.55
2018-10-18T16:26:04.768Z,33.20
2018-10-18T16:28:33.749Z,37.40
2018-10-18T16:31:02.805Z,33.13
2018-10-18T16:33:31.932Z,32.63
2018-10-18T16:41:12.773Z,37.08
2018-10-18T16:43:42.581Z,33.85
2018-10-18T16:46:11.688Z,31.97
2018-10-18T16:48:40.672Z,30.67
2018-10-18T16:51:11.722Z,35.27
2018-10-18T16:53:40.764Z,31.60
2018-10-18T16:56:10.770Z,30.37
2018-10-18T16:58:39.786Z,32.33
2018-10-18T17:01:08.831Z,34.73
2018-10-18T17:03:37.887Z,44.67
2018-10-18T17:06:06.983Z,37.83
2018-10-18T17:08:36.941Z,34.17
2018-10-18T17:11:05.998Z,32.03
2018-10-18T17:13:35.052Z,38.50
2018-10-18T17:16:04.180Z,33.90
2018-10-18T17:18:33.159Z,36.20
2018-10-18T17:21:02.281Z,42.37
2018-10-18T17:23:32.280Z,44.45
2018-10-18T17:26:01.409Z,35.27
2018-10-18T17:28:30.401Z,33.93
2018-10-18T17:30:59.479Z,38.93
2018-10-18T17:33:29.489Z,39.50
2018-10-18T17:35:58.594Z,39.45
2018-10-18T17:38:28.589Z,34.50
2018-10-18T17:40:57.658Z,33.80
2018-10-18T17:43:26.715Z,33.50
2018-10-18T17:45:55.844Z,38.83
2018-10-18T17:48:25.823Z,34.50
2018-10-18T17:50:56.781Z,31.10
2018-10-18T17:53:26.789Z,29.50
2018-10-18T17:55:55.843Z,31.83
2018-10-18T17:58:24.896Z,30.63
2018-10-18T18:00:53.944Z,30.80
2018-10-18T18:03:23.001Z,29.23
2018-10-18T18:05:52.103Z,31.20
2018-10-18T18:08:23.023Z,31.00
2018-10-18T18:10:52.069Z,33.73
2018-10-18T18:13:22.049Z,30.30
2018-10-18T18:15:54.642Z,33.73
2018-10-18T18:18:23.680Z,33.53
2018-10-18T18:20:52.732Z,35.50
2018-10-18T18:23:22.840Z,36.87
2018-10-18T18:25:51.882Z,37.53
2018-10-18T18:28:20.935Z,35.37
2018-10-18T18:30:49.997Z,37.70
2018-10-18T18:33:19.057Z,36.10
2018-10-18T18:35:48.118Z,41.55
2018-10-18T18:38:17.168Z,36.80
2018-10-18T18:43:21.921Z,41.10
2018-10-18T18:45:50.986Z,40.20
2018-10-18T18:48:20.026Z,42.70
2018-10-18T18:50:49.140Z,35.83
2018-10-18T18:53:18.204Z,32.57
2018-10-18T18:55:47.190Z,31.40
2018-10-18T18:58:16.243Z,30.90
2018-10-18T19:00:45.305Z,28.53
2018-10-18T19:03:14.400Z,35.90
2018-10-18T19:08:20.149Z,33.63
2018-10-18T19:10:49.223Z,35.85
2018-10-18T19:13:19.387Z,38.08
2018-10-18T19:15:48.393Z,33.20
2018-10-18T19:18:17.473Z,38.95
2018-10-18T19:20:46.507Z,34.60
2018-10-18T19:23:15.560Z,31.97
2018-10-18T19:25:44.705Z,32.10
2018-10-18T19:28:17.850Z,32.80
2018-10-18T19:30:46.941Z,30.50
2018-10-18T19:33:15.982Z,31.57
2018-10-18T19:35:46.990Z,33.37
2018-10-18T19:38:16.220Z,31.97
2018-10-18T19:40:45.232Z,32.23
2018-10-18T19:43:14.288Z,33.80
2018-10-18T19:45:43.398Z,32.57
2018-10-18T19:50:48.087Z,39.50
2018-10-18T19:55:52.853Z,41.40
2018-10-18T19:58:22.829Z,36.13
2018-10-18T20:00:51.905Z,41.90
2018-10-18T20:03:20.964Z,42.00
2018-10-18T20:05:50.006Z,41.65
2018-10-18T20:08:19.141Z,38.00
2018-10-18T20:10:48.115Z,33.50
2018-10-18T20:13:17.179Z,32.70
2018-10-18T20:15:46.240Z,35.23
2018-10-18T20:18:15.370Z,36.17
2018-10-18T20:20:44.321Z,36.07
2018-10-18T20:23:13.401Z,41.00
2018-10-18T20:25:42.616Z,41.37
2018-10-18T20:28:13.905Z,35.87
2018-10-18T20:30:43.869Z,35.17
2018-10-18T20:33:12.983Z,43.60
2018-10-18T20:35:41.983Z,43.75
2018-10-18T20:38:11.006Z,40.27
2018-10-18T20:40:42.020Z,34.87
2018-10-18T20:43:11.057Z,33.80
2018-10-18T20:48:15.791Z,42.15
2018-10-18T20:50:44.848Z,37.70
2018-10-18T20:53:13.955Z,33.20
2018-10-18T20:58:18.677Z,39.80
2018-10-18T21:00:47.725Z,34.50
2018-10-18T21:03:17.929Z,37.17
2018-10-18T21:05:46.971Z,35.10
2018-10-18T21:10:51.718Z,39.05
2018-10-18T21:15:56.477Z,40.33
2018-10-18T21:21:01.226Z,42.08
2018-10-18T21:26:05.964Z,40.50
2018-10-18T21:28:35.026Z,34.90
2018-10-18T21:31:04.133Z,31.90
2018-10-18T21:33:33.176Z,30.50
2018-10-18T21:36:02.237Z,31.40
2018-10-18T21:38:32.355Z,30.07
2018-10-18T21:41:01.452Z,30.33
2018-10-18T21:43:30.435Z,32.17
2018-10-18T21:46:00.228Z,30.60
2018-10-18T21:48:29.282Z,31.80
2018-10-18T21:50:59.326Z,30.63
2018-10-18T21:53:28.319Z,32.07
2018-10-18T21:55:57.364Z,37.90
2018-10-18T21:58:26.445Z,34.43
2018-10-18T22:00:55.941Z,31.50
2018-10-18T22:03:26.028Z,28.50
2018-10-18T22:05:55.094Z,39.80
2018-10-18T22:08:24.154Z,34.67
2018-10-18T22:13:28.884Z,38.20
2018-10-18T22:15:57.951Z,30.20
2018-10-18T22:18:26.998Z,34.57
2018-10-18T22:20:56.101Z,30.70
2018-10-18T22:23:25.137Z,32.00
2018-10-18T22:28:29.937Z,40.90
2018-10-18T22:30:58.992Z,42.92
2018-10-18T22:33:28.048Z,33.90
2018-10-18T22:35:58.113Z,34.07
2018-10-18T22:38:27.229Z,39.65
2018-10-18T22:40:56.288Z,35.70
2018-10-18T22:43:25.314Z,32.80
2018-10-18T22:45:54.361Z,40.88
2018-10-18T22:50:59.116Z,39.05
2018-10-18T22:53:28.153Z,33.17
2018-10-18T22:55:57.201Z,30.70
2018-10-18T22:58:26.247Z,30.00
2018-10-18T23:00:55.345Z,31.63
2018-10-18T23:03:24.369Z,31.27
2018-10-18T23:05:53.422Z,39.40
2018-10-18T23:08:22.465Z,35.50
2018-10-18T23:10:51.509Z,45.20
2018-10-18T23:13:20.561Z,38.27
2018-10-18T23:15:49.597Z,35.40
2018-10-18T23:18:18.653Z,31.80
2018-10-18T23:20:47.713Z,33.97
2018-10-18T23:23:16.829Z,33.57
2018-10-18T23:25:45.829Z,41.00
2018-10-18T23:28:14.857Z,38.33
2018-10-18T23:30:44.854Z,33.73
2018-10-18T23:33:14.913Z,34.77
2018-10-18T23:38:19.675Z,39.90
2018-10-18T23:40:48.723Z,35.33
2018-10-18T23:43:19.878Z,34.27
2018-10-18T23:45:48.958Z,35.00
2018-10-18T23:48:18.018Z,33.87
2018-10-18T23:50:47.064Z,33.13
2018-10-18T23:53:16.117Z,35.37
2018-10-18T23:55:45.169Z,35.30
2018-10-18T23:58:14.215Z,36.13
